sensor_id;sensor_type;location;lat;lon;timestamp;pressure;altitude;pressure_sealevel;temperature;humidity
10948;BME280;5526;42.070;24.752;2023-05-21T00:00:06;98707.94;;;18.97;71.21
10948;BME280;5526;42.070;24.752;2023-05-21T00:02:36;98712.97;;;18.98;70.94
10948;BME280;5526;42.070;24.752;2023-05-21T00:05:04;98710.75;;;19.00;70.92
10948;BME280;5526;42.070;24.752;2023-05-21T00:07:31;98701.81;;;19.05;70.77
10948;BME280;5526;42.070;24.752;2023-05-21T00:09:58;98703.25;;;19.02;70.68
10948;BME280;5526;42.070;24.752;2023-05-21T00:12:27;98701.19;;;18.99;70.76
10948;BME280;5526;42.070;24.752;2023-05-21T00:14:54;98704.63;;;19.00;70.82
10948;BME280;5526;42.070;24.752;2023-05-21T00:17:21;98694.59;;;19.05;71.28
10948;BME280;5526;42.070;24.752;2023-05-21T00:19:48;98692.25;;;18.95;73.79
10948;BME280;5526;42.070;24.752;2023-05-21T00:22:16;98686.63;;;18.71;76.47
10948;BME280;5526;42.070;24.752;2023-05-21T00:24:43;98693.03;;;18.53;78.26
10948;BME280;5526;42.070;24.752;2023-05-21T00:27:10;98692.25;;;18.61;78.84
10948;BME280;5526;42.070;24.752;2023-05-21T00:29:38;98691.00;;;18.59;79.98
10948;BME280;5526;42.070;24.752;2023-05-21T00:32:06;98683.13;;;18.45;79.78
10948;BME280;5526;42.070;24.752;2023-05-21T00:34:33;98693.00;;;18.36;80.82
10948;BME280;5526;42.070;24.752;2023-05-21T00:37:00;98679.59;;;18.19;82.39
10948;BME280;5526;42.070;24.752;2023-05-21T00:39:28;98675.84;;;18.12;84.11
10948;BME280;5526;42.070;24.752;2023-05-21T00:41:55;98673.28;;;17.98;85.64
10948;BME280;5526;42.070;24.752;2023-05-21T00:44:22;98668.41;;;17.92;85.91
10948;BME280;5526;42.070;24.752;2023-05-21T00:46:51;98671.13;;;18.00;85.41
10948;BME280;5526;42.070;24.752;2023-05-21T00:49:19;98671.88;;;18.01;85.45
10948;BME280;5526;42.070;24.752;2023-05-21T00:51:49;98668.38;;;17.83;85.99
10948;BME280;5526;42.070;24.752;2023-05-21T00:54:17;98667.88;;;17.73;86.50
10948;BME280;5526;42.070;24.752;2023-05-21T00:56:44;98661.78;;;17.81;85.65
10948;BME280;5526;42.070;24.752;2023-05-21T00:59:12;98661.19;;;17.92;84.57
10948;BME280;5526;42.070;24.752;2023-05-21T01:01:42;98655.25;;;17.95;83.91
10948;BME280;5526;42.070;24.752;2023-05-21T01:04:11;98657.00;;;18.00;82.56
10948;BME280;5526;42.070;24.752;2023-05-21T01:06:38;98659.69;;;18.08;81.09
10948;BME280;5526;42.070;24.752;2023-05-21T01:09:07;98661.91;;;18.15;79.79
10948;BME280;5526;42.070;24.752;2023-05-21T01:11:38;98633.22;;;18.12;78.41
10948;BME280;5526;42.070;24.752;2023-05-21T01:14:07;98650.81;;;18.30;77.87
10948;BME280;5526;42.070;24.752;2023-05-21T01:16:38;98654.91;;;18.36;77.13
10948;BME280;5526;42.070;24.752;2023-05-21T01:19:12;98651.00;;;18.42;76.80
10948;BME280;5526;42.070;24.752;2023-05-21T01:21:43;98662.63;;;18.46;76.85
10948;BME280;5526;42.070;24.752;2023-05-21T01:24:12;98653.22;;;18.48;76.83
10948;BME280;5526;42.070;24.752;2023-05-21T01:26:39;98652.72;;;18.46;76.59
10948;BME280;5526;42.070;24.752;2023-05-21T01:29:09;98659.31;;;18.40;76.52
10948;BME280;5526;42.070;24.752;2023-05-21T01:31:46;98664.66;;;18.40;75.93
10948;BME280;5526;42.070;24.752;2023-05-21T01:34:15;98654.28;;;18.39;76.55
10948;BME280;5526;42.070;24.752;2023-05-21T01:36:50;98651.16;;;18.37;78.12
10948;BME280;5526;42.070;24.752;2023-05-21T01:39:24;98639.97;;;18.26;78.44
10948;BME280;5526;42.070;24.752;2023-05-21T01:41:53;98661.81;;;18.37;78.92
10948;BME280;5526;42.070;24.752;2023-05-21T01:44:23;98650.06;;;18.38;79.32
10948;BME280;5526;42.070;24.752;2023-05-21T01:46:52;98652.25;;;18.36;79.66
10948;BME280;5526;42.070;24.752;2023-05-21T01:49:21;98652.25;;;18.36;80.32
10948;BME280;5526;42.070;24.752;2023-05-21T01:51:48;98650.84;;;18.38;79.60
10948;BME280;5526;42.070;24.752;2023-05-21T01:54:15;98655.09;;;18.39;79.44
10948;BME280;5526;42.070;24.752;2023-05-21T01:56:44;98651.38;;;18.01;84.23
10948;BME280;5526;42.070;24.752;2023-05-21T01:59:12;98644.84;;;17.68;87.29
10948;BME280;5526;42.070;24.752;2023-05-21T02:01:39;98642.38;;;17.80;86.82
10948;BME280;5526;42.070;24.752;2023-05-21T02:04:06;98636.44;;;17.83;87.27
10948;BME280;5526;42.070;24.752;2023-05-21T02:06:33;98628.00;;;17.90;87.46
10948;BME280;5526;42.070;24.752;2023-05-21T02:09:01;98627.22;;;17.98;87.06
10948;BME280;5526;42.070;24.752;2023-05-21T02:11:29;98632.88;;;18.05;86.97
10948;BME280;5526;42.070;24.752;2023-05-21T02:13:57;98636.78;;;17.90;88.59
10948;BME280;5526;42.070;24.752;2023-05-21T02:16:25;98640.66;;;17.76;90.55
10948;BME280;5526;42.070;24.752;2023-05-21T02:18:52;98630.00;;;17.76;90.94
10948;BME280;5526;42.070;24.752;2023-05-21T02:21:21;98637.50;;;17.74;91.79
10948;BME280;5526;42.070;24.752;2023-05-21T02:23:48;98633.88;;;17.70;92.42
10948;BME280;5526;42.070;24.752;2023-05-21T02:26:15;98640.47;;;17.72;92.47
10948;BME280;5526;42.070;24.752;2023-05-21T02:28:43;98642.63;;;17.62;92.79
10948;BME280;5526;42.070;24.752;2023-05-21T02:31:11;98646.94;;;17.49;94.58
10948;BME280;5526;42.070;24.752;2023-05-21T02:33:39;98638.78;;;17.46;94.76
10948;BME280;5526;42.070;24.752;2023-05-21T02:36:06;98637.41;;;17.48;95.10
10948;BME280;5526;42.070;24.752;2023-05-21T02:38:38;98639.59;;;17.46;94.51
10948;BME280;5526;42.070;24.752;2023-05-21T02:41:08;98632.88;;;17.49;93.31
10948;BME280;5526;42.070;24.752;2023-05-21T02:43:35;98640.84;;;17.49;91.92
10948;BME280;5526;42.070;24.752;2023-05-21T02:46:04;98629.41;;;17.48;93.27
10948;BME280;5526;42.070;24.752;2023-05-21T02:48:33;98632.31;;;17.38;94.78
10948;BME280;5526;42.070;24.752;2023-05-21T02:51:00;98636.53;;;17.39;95.32
10948;BME280;5526;42.070;24.752;2023-05-21T02:53:27;98643.31;;;17.45;95.29
10948;BME280;5526;42.070;24.752;2023-05-21T02:55:54;98644.78;;;17.51;94.93
10948;BME280;5526;42.070;24.752;2023-05-21T02:58:22;98625.34;;;17.42;95.42
10948;BME280;5526;42.070;24.752;2023-05-21T03:00:50;98637.84;;;17.42;95.49
10948;BME280;5526;42.070;24.752;2023-05-21T03:03:18;98635.28;;;17.37;95.75
10948;BME280;5526;42.070;24.752;2023-05-21T03:05:46;98640.34;;;17.47;95.15
10948;BME280;5526;42.070;24.752;2023-05-21T03:08:14;98633.16;;;17.47;95.08
10948;BME280;5526;42.070;24.752;2023-05-21T03:10:41;98634.28;;;17.46;95.03
10948;BME280;5526;42.070;24.752;2023-05-21T03:13:08;98637.94;;;17.37;95.51
10948;BME280;5526;42.070;24.752;2023-05-21T03:15:35;98640.38;;;17.25;96.53
10948;BME280;5526;42.070;24.752;2023-05-21T03:18:03;98636.72;;;17.12;97.59
10948;BME280;5526;42.070;24.752;2023-05-21T03:20:30;98623.91;;;17.14;97.24
10948;BME280;5526;42.070;24.752;2023-05-21T03:22:59;98643.41;;;17.32;96.76
10948;BME280;5526;42.070;24.752;2023-05-21T03:25:28;98639.75;;;17.28;97.01
10948;BME280;5526;42.070;24.752;2023-05-21T03:27:55;98640.41;;;17.33;96.65
10948;BME280;5526;42.070;24.752;2023-05-21T03:30:22;98643.72;;;17.39;96.85
10948;BME280;5526;42.070;24.752;2023-05-21T03:32:49;98634.38;;;17.41;95.28
10948;BME280;5526;42.070;24.752;2023-05-21T03:35:17;98630.50;;;17.47;93.22
10948;BME280;5526;42.070;24.752;2023-05-21T03:37:44;98639.16;;;17.53;90.53
10948;BME280;5526;42.070;24.752;2023-05-21T03:40:13;98634.63;;;17.53;90.76
10948;BME280;5526;42.070;24.752;2023-05-21T03:42:40;98635.25;;;17.59;91.06
10948;BME280;5526;42.070;24.752;2023-05-21T03:45:08;98639.03;;;17.66;89.51
10948;BME280;5526;42.070;24.752;2023-05-21T03:47:35;98636.84;;;17.68;86.75
10948;BME280;5526;42.070;24.752;2023-05-21T03:50:02;98641.22;;;17.64;88.25
10948;BME280;5526;42.070;24.752;2023-05-21T03:52:30;98641.75;;;17.44;92.42
10948;BME280;5526;42.070;24.752;2023-05-21T03:54:57;98648.84;;;17.49;91.51
10948;BME280;5526;42.070;24.752;2023-05-21T03:57:25;98648.63;;;17.45;94.28
10948;BME280;5526;42.070;24.752;2023-05-21T03:59:52;98651.63;;;17.22;98.02
10948;BME280;5526;42.070;24.752;2023-05-21T04:02:20;98652.22;;;17.19;99.43
10948;BME280;5526;42.070;24.752;2023-05-21T04:04:47;98650.81;;;17.13;100.00
10948;BME280;5526;42.070;24.752;2023-05-21T04:07:15;98649.88;;;17.17;100.00
10948;BME280;5526;42.070;24.752;2023-05-21T04:09:43;98644.69;;;16.90;100.00
10948;BME280;5526;42.070;24.752;2023-05-21T04:12:10;98647.72;;;16.97;100.00
10948;BME280;5526;42.070;24.752;2023-05-21T04:14:39;98646.22;;;17.05;100.00
10948;BME280;5526;42.070;24.752;2023-05-21T04:17:06;98649.34;;;17.07;100.00
10948;BME280;5526;42.070;24.752;2023-05-21T04:19:33;98645.34;;;17.18;100.00
10948;BME280;5526;42.070;24.752;2023-05-21T04:22:00;98641.16;;;17.25;100.00
10948;BME280;5526;42.070;24.752;2023-05-21T04:24:27;98636.19;;;17.32;100.00
10948;BME280;5526;42.070;24.752;2023-05-21T04:26:54;98643.03;;;17.47;99.99
10948;BME280;5526;42.070;24.752;2023-05-21T04:29:25;98639.97;;;17.62;99.20
10948;BME280;5526;42.070;24.752;2023-05-21T04:31:54;98627.16;;;17.72;98.32
10948;BME280;5526;42.070;24.752;2023-05-21T04:34:21;98621.72;;;17.77;98.36
10948;BME280;5526;42.070;24.752;2023-05-21T04:36:48;98626.59;;;17.84;96.80
10948;BME280;5526;42.070;24.752;2023-05-21T04:39:16;98626.91;;;17.91;95.53
10948;BME280;5526;42.070;24.752;2023-05-21T04:41:43;98630.84;;;18.02;93.47
10948;BME280;5526;42.070;24.752;2023-05-21T04:44:10;98645.25;;;18.01;92.20
10948;BME280;5526;42.070;24.752;2023-05-21T04:46:39;98650.06;;;17.82;93.47
10948;BME280;5526;42.070;24.752;2023-05-21T04:49:08;98641.81;;;18.00;88.77
10948;BME280;5526;42.070;24.752;2023-05-21T04:51:36;98649.06;;;18.17;87.04
10948;BME280;5526;42.070;24.752;2023-05-21T04:54:03;98641.19;;;17.95;94.80
10948;BME280;5526;42.070;24.752;2023-05-21T04:56:30;98640.88;;;17.96;96.23
10948;BME280;5526;42.070;24.752;2023-05-21T04:58:57;98639.00;;;18.05;96.82
10948;BME280;5526;42.070;24.752;2023-05-21T05:01:24;98647.66;;;18.11;96.44
10948;BME280;5526;42.070;24.752;2023-05-21T05:03:53;98642.31;;;18.11;93.92
10948;BME280;5526;42.070;24.752;2023-05-21T05:06:22;98645.13;;;18.14;94.58
10948;BME280;5526;42.070;24.752;2023-05-21T05:08:50;98652.31;;;18.05;97.79
10948;BME280;5526;42.070;24.752;2023-05-21T05:11:17;98649.19;;;18.12;98.28
10948;BME280;5526;42.070;24.752;2023-05-21T05:13:44;98645.41;;;17.96;100.00
10948;BME280;5526;42.070;24.752;2023-05-21T05:16:11;98651.22;;;18.06;100.00
10948;BME280;5526;42.070;24.752;2023-05-21T05:18:39;98651.53;;;17.96;100.00
10948;BME280;5526;42.070;24.752;2023-05-21T05:21:06;98643.50;;;17.88;100.00
10948;BME280;5526;42.070;24.752;2023-05-21T05:23:34;98649.94;;;17.95;100.00
10948;BME280;5526;42.070;24.752;2023-05-21T05:26:01;98662.19;;;18.05;100.00
10948;BME280;5526;42.070;24.752;2023-05-21T05:28:28;98657.31;;;17.98;100.00
10948;BME280;5526;42.070;24.752;2023-05-21T05:30:55;98669.22;;;18.01;100.00
10948;BME280;5526;42.070;24.752;2023-05-21T05:33:22;98671.91;;;18.09;100.00
10948;BME280;5526;42.070;24.752;2023-05-21T05:35:49;98681.44;;;18.02;100.00
10948;BME280;5526;42.070;24.752;2023-05-21T05:38:16;98674.22;;;17.94;100.00
10948;BME280;5526;42.070;24.752;2023-05-21T05:40:45;98666.53;;;17.92;100.00
10948;BME280;5526;42.070;24.752;2023-05-21T05:43:12;98668.13;;;18.02;100.00
10948;BME280;5526;42.070;24.752;2023-05-21T05:45:39;98661.25;;;18.09;100.00
10948;BME280;5526;42.070;24.752;2023-05-21T05:48:06;98649.81;;;18.09;100.00
10948;BME280;5526;42.070;24.752;2023-05-21T05:50:33;98666.63;;;18.18;100.00
10948;BME280;5526;42.070;24.752;2023-05-21T05:53:00;98676.28;;;18.14;100.00
10948;BME280;5526;42.070;24.752;2023-05-21T05:55:27;98670.84;;;18.19;100.00
10948;BME280;5526;42.070;24.752;2023-05-21T05:57:55;98672.25;;;18.25;100.00
10948;BME280;5526;42.070;24.752;2023-05-21T06:00:22;98671.91;;;18.09;100.00
10948;BME280;5526;42.070;24.752;2023-05-21T06:02:49;98682.34;;;17.89;100.00
10948;BME280;5526;42.070;24.752;2023-05-21T06:05:16;98694.28;;;18.00;100.00
10948;BME280;5526;42.070;24.752;2023-05-21T06:07:43;98698.69;;;18.04;100.00
10948;BME280;5526;42.070;24.752;2023-05-21T06:10:10;98701.97;;;18.01;100.00
10948;BME280;5526;42.070;24.752;2023-05-21T06:12:38;98680.97;;;18.00;100.00
10948;BME280;5526;42.070;24.752;2023-05-21T06:15:10;98702.78;;;18.10;100.00
10948;BME280;5526;42.070;24.752;2023-05-21T06:17:39;98713.91;;;18.12;100.00
10948;BME280;5526;42.070;24.752;2023-05-21T06:20:08;98713.88;;;18.04;100.00
10948;BME280;5526;42.070;24.752;2023-05-21T06:22:35;98710.13;;;18.05;100.00
10948;BME280;5526;42.070;24.752;2023-05-21T06:25:03;98707.66;;;18.17;100.00
10948;BME280;5526;42.070;24.752;2023-05-21T06:27:30;98699.84;;;18.29;100.00
10948;BME280;5526;42.070;24.752;2023-05-21T06:29:57;98706.47;;;18.40;100.00
10948;BME280;5526;42.070;24.752;2023-05-21T06:32:26;98702.88;;;18.53;100.00
10948;BME280;5526;42.070;24.752;2023-05-21T06:34:53;98698.97;;;18.50;100.00
10948;BME280;5526;42.070;24.752;2023-05-21T06:37:20;98696.31;;;18.50;100.00
10948;BME280;5526;42.070;24.752;2023-05-21T06:39:47;98707.94;;;18.63;100.00
10948;BME280;5526;42.070;24.752;2023-05-21T06:42:14;98708.88;;;18.67;100.00
10948;BME280;5526;42.070;24.752;2023-05-21T06:44:42;98698.53;;;18.74;100.00
10948;BME280;5526;42.070;24.752;2023-05-21T06:47:09;98693.03;;;18.79;100.00
10948;BME280;5526;42.070;24.752;2023-05-21T06:49:37;98693.69;;;18.93;100.00
10948;BME280;5526;42.070;24.752;2023-05-21T06:52:06;98689.75;;;18.99;100.00
10948;BME280;5526;42.070;24.752;2023-05-21T06:54:33;98693.81;;;19.05;100.00
10948;BME280;5526;42.070;24.752;2023-05-21T06:57:00;98692.56;;;19.11;99.75
10948;BME280;5526;42.070;24.752;2023-05-21T06:59:28;98701.34;;;19.11;95.35
10948;BME280;5526;42.070;24.752;2023-05-21T07:01:55;98695.69;;;19.13;92.74
10948;BME280;5526;42.070;24.752;2023-05-21T07:04:22;98693.78;;;19.22;90.60
10948;BME280;5526;42.070;24.752;2023-05-21T07:06:50;98690.66;;;19.28;88.45
10948;BME280;5526;42.070;24.752;2023-05-21T07:09:18;98685.03;;;19.30;87.01
10948;BME280;5526;42.070;24.752;2023-05-21T07:11:45;98678.56;;;19.31;84.48
10948;BME280;5526;42.070;24.752;2023-05-21T07:14:12;98685.31;;;19.37;82.16
10948;BME280;5526;42.070;24.752;2023-05-21T07:16:39;98686.06;;;19.46;80.36
10948;BME280;5526;42.070;24.752;2023-05-21T07:19:06;98685.75;;;19.56;80.39
10948;BME280;5526;42.070;24.752;2023-05-21T07:21:33;98684.94;;;19.64;79.36
10948;BME280;5526;42.070;24.752;2023-05-21T07:24:02;98694.31;;;19.70;77.98
10948;BME280;5526;42.070;24.752;2023-05-21T07:26:29;98688.50;;;19.76;77.22
10948;BME280;5526;42.070;24.752;2023-05-21T07:28:56;98678.25;;;19.87;77.44
10948;BME280;5526;42.070;24.752;2023-05-21T07:31:23;98690.41;;;20.05;77.37
10948;BME280;5526;42.070;24.752;2023-05-21T07:33:51;98688.22;;;20.15;76.76
10948;BME280;5526;42.070;24.752;2023-05-21T07:36:18;98693.47;;;20.24;76.61
10948;BME280;5526;42.070;24.752;2023-05-21T07:38:45;98694.97;;;20.42;76.55
10948;BME280;5526;42.070;24.752;2023-05-21T07:41:14;98693.88;;;20.63;75.91
10948;BME280;5526;42.070;24.752;2023-05-21T07:43:41;98699.78;;;20.89;74.60
10948;BME280;5526;42.070;24.752;2023-05-21T07:46:08;98691.59;;;21.15;72.89
10948;BME280;5526;42.070;24.752;2023-05-21T07:48:36;98699.53;;;21.36;72.05
10948;BME280;5526;42.070;24.752;2023-05-21T07:51:03;98706.50;;;21.37;69.07
10948;BME280;5526;42.070;24.752;2023-05-21T07:53:31;98704.59;;;21.49;67.19
10948;BME280;5526;42.070;24.752;2023-05-21T07:55:58;98704.69;;;21.73;63.28
10948;BME280;5526;42.070;24.752;2023-05-21T07:58:27;98710.06;;;21.85;61.63
10948;BME280;5526;42.070;24.752;2023-05-21T08:00:55;98709.63;;;21.95;63.68
10948;BME280;5526;42.070;24.752;2023-05-21T08:03:24;98708.06;;;21.94;64.46
10948;BME280;5526;42.070;24.752;2023-05-21T08:05:52;98706.84;;;22.04;65.75
10948;BME280;5526;42.070;24.752;2023-05-21T08:08:19;98700.13;;;22.22;63.53
10948;BME280;5526;42.070;24.752;2023-05-21T08:10:48;98703.03;;;22.29;62.99
10948;BME280;5526;42.070;24.752;2023-05-21T08:13:15;98703.47;;;22.43;61.53
10948;BME280;5526;42.070;24.752;2023-05-21T08:15:44;98708.06;;;22.42;61.33
10948;BME280;5526;42.070;24.752;2023-05-21T08:18:11;98707.50;;;22.37;61.70
10948;BME280;5526;42.070;24.752;2023-05-21T08:20:38;98702.03;;;22.45;63.04
10948;BME280;5526;42.070;24.752;2023-05-21T08:23:05;98706.34;;;22.62;63.50
10948;BME280;5526;42.070;24.752;2023-05-21T08:25:33;98710.06;;;22.69;63.82
10948;BME280;5526;42.070;24.752;2023-05-21T08:28:00;98704.09;;;22.76;64.19
10948;BME280;5526;42.070;24.752;2023-05-21T08:30:27;98712.78;;;22.85;63.84
10948;BME280;5526;42.070;24.752;2023-05-21T08:32:55;98713.81;;;22.80;61.44
10948;BME280;5526;42.070;24.752;2023-05-21T08:35:23;98707.28;;;22.66;59.65
10948;BME280;5526;42.070;24.752;2023-05-21T08:37:50;98708.84;;;22.55;58.33
10948;BME280;5526;42.070;24.752;2023-05-21T08:40:18;98710.63;;;22.39;57.51
10948;BME280;5526;42.070;24.752;2023-05-21T08:42:46;98711.41;;;22.27;58.18
10948;BME280;5526;42.070;24.752;2023-05-21T08:45:20;98705.16;;;22.23;57.66
10948;BME280;5526;42.070;24.752;2023-05-21T08:47:55;98705.25;;;22.15;56.92
10948;BME280;5526;42.070;24.752;2023-05-21T08:50:25;98706.94;;;22.19;58.32
10948;BME280;5526;42.070;24.752;2023-05-21T08:52:53;98698.34;;;22.02;58.99
10948;BME280;5526;42.070;24.752;2023-05-21T08:55:21;98697.59;;;22.01;59.52
10948;BME280;5526;42.070;24.752;2023-05-21T08:57:48;98700.94;;;21.98;59.25
10948;BME280;5526;42.070;24.752;2023-05-21T09:00:16;98691.31;;;21.97;58.85
10948;BME280;5526;42.070;24.752;2023-05-21T09:02:45;98694.34;;;21.96;59.18
10948;BME280;5526;42.070;24.752;2023-05-21T09:05:14;98692.31;;;22.05;59.90
10948;BME280;5526;42.070;24.752;2023-05-21T09:07:46;98690.78;;;22.04;60.60
10948;BME280;5526;42.070;24.752;2023-05-21T09:10:17;98686.97;;;22.05;60.98
10948;BME280;5526;42.070;24.752;2023-05-21T09:12:48;98694.34;;;22.08;60.81
10948;BME280;5526;42.070;24.752;2023-05-21T09:15:15;98690.63;;;22.00;60.68
10948;BME280;5526;42.070;24.752;2023-05-21T09:17:45;98690.88;;;21.95;61.10
10948;BME280;5526;42.070;24.752;2023-05-21T09:20:14;98689.75;;;21.96;61.09
10948;BME280;5526;42.070;24.752;2023-05-21T09:22:43;98685.06;;;22.05;60.41
10948;BME280;5526;42.070;24.752;2023-05-21T09:25:11;98689.75;;;22.08;60.25
10948;BME280;5526;42.070;24.752;2023-05-21T09:27:39;98684.03;;;22.22;59.74
10948;BME280;5526;42.070;24.752;2023-05-21T09:30:10;98687.41;;;22.31;58.71
10948;BME280;5526;42.070;24.752;2023-05-21T09:32:37;98690.44;;;22.29;58.91
10948;BME280;5526;42.070;24.752;2023-05-21T09:35:09;98690.63;;;22.36;58.19
10948;BME280;5526;42.070;24.752;2023-05-21T09:37:39;98693.09;;;22.41;58.17
10948;BME280;5526;42.070;24.752;2023-05-21T09:40:12;98696.44;;;22.50;57.93
10948;BME280;5526;42.070;24.752;2023-05-21T09:42:41;98694.97;;;22.53;58.18
10948;BME280;5526;42.070;24.752;2023-05-21T09:45:09;98687.28;;;22.51;58.08
10948;BME280;5526;42.070;24.752;2023-05-21T09:47:40;98699.44;;;22.61;57.58
10948;BME280;5526;42.070;24.752;2023-05-21T09:50:09;98698.69;;;22.60;57.45
10948;BME280;5526;42.070;24.752;2023-05-21T09:52:38;98691.06;;;22.62;57.66
10948;BME280;5526;42.070;24.752;2023-05-21T09:55:07;98689.13;;;22.75;58.15
10948;BME280;5526;42.070;24.752;2023-05-21T09:57:40;98699.91;;;22.90;56.71
10948;BME280;5526;42.070;24.752;2023-05-21T10:00:09;98694.50;;;23.02;57.44
10948;BME280;5526;42.070;24.752;2023-05-21T10:02:43;98689.44;;;23.13;57.71
10948;BME280;5526;42.070;24.752;2023-05-21T10:05:11;98696.78;;;23.16;56.61
10948;BME280;5526;42.070;24.752;2023-05-21T10:07:47;98656.91;;;23.02;57.27
10948;BME280;5526;42.070;24.752;2023-05-21T10:10:18;98692.09;;;23.25;57.46
10948;BME280;5526;42.070;24.752;2023-05-21T10:12:46;98692.00;;;23.21;57.95
10948;BME280;5526;42.070;24.752;2023-05-21T10:15:16;98695.13;;;23.23;57.79
10948;BME280;5526;42.070;24.752;2023-05-21T10:17:46;98695.31;;;23.18;57.79
10948;BME280;5526;42.070;24.752;2023-05-21T10:20:15;98704.75;;;23.12;58.03
10948;BME280;5526;42.070;24.752;2023-05-21T10:22:44;98703.25;;;22.99;57.57
10948;BME280;5526;42.070;24.752;2023-05-21T10:25:12;98704.34;;;22.98;59.44
10948;BME280;5526;42.070;24.752;2023-05-21T10:27:40;98711.09;;;22.92;60.42
10948;BME280;5526;42.070;24.752;2023-05-21T10:30:08;98709.09;;;22.89;61.63
10948;BME280;5526;42.070;24.752;2023-05-21T10:32:35;98710.09;;;22.85;62.68
10948;BME280;5526;42.070;24.752;2023-05-21T10:35:06;98711.34;;;22.75;64.59
10948;BME280;5526;42.070;24.752;2023-05-21T10:37:34;98708.63;;;22.48;62.78
10948;BME280;5526;42.070;24.752;2023-05-21T10:40:04;98715.22;;;22.14;60.84
10948;BME280;5526;42.070;24.752;2023-05-21T10:43:12;98711.31;;;22.00;59.42
10948;BME280;5526;42.070;24.752;2023-05-21T10:45:59;98708.84;;;22.07;61.39
10948;BME280;5526;42.070;24.752;2023-05-21T10:48:56;98712.41;;;21.99;61.12
10948;BME280;5526;42.070;24.752;2023-05-21T10:51:25;98718.22;;;21.89;63.18
10948;BME280;5526;42.070;24.752;2023-05-21T10:54:37;98712.28;;;21.71;61.97
10948;BME280;5526;42.070;24.752;2023-05-21T10:57:19;98722.22;;;21.50;63.53
10948;BME280;5526;42.070;24.752;2023-05-21T10:59:51;98721.38;;;21.58;63.03
10948;BME280;5526;42.070;24.752;2023-05-21T11:02:18;98709.88;;;21.58;62.55
10948;BME280;5526;42.070;24.752;2023-05-21T11:04:47;98709.06;;;21.45;63.10
10948;BME280;5526;42.070;24.752;2023-05-21T11:07:49;98703.81;;;21.37;63.93
10948;BME280;5526;42.070;24.752;2023-05-21T11:10:34;98709.53;;;21.47;62.82
10948;BME280;5526;42.070;24.752;2023-05-21T11:13:07;98694.47;;;21.55;62.26
10948;BME280;5526;42.070;24.752;2023-05-21T11:16:05;98702.50;;;21.55;61.44
10948;BME280;5526;42.070;24.752;2023-05-21T11:19:01;98695.41;;;21.71;62.08
10948;BME280;5526;42.070;24.752;2023-05-21T11:21:33;98689.50;;;21.89;60.25
10948;BME280;5526;42.070;24.752;2023-05-21T11:24:03;98691.09;;;22.02;59.70
10948;BME280;5526;42.070;24.752;2023-05-21T11:26:58;98685.06;;;22.05;59.40
10948;BME280;5526;42.070;24.752;2023-05-21T11:29:41;98678.56;;;22.30;59.29
10948;BME280;5526;42.070;24.752;2023-05-21T11:32:10;98682.78;;;22.43;59.14
10948;BME280;5526;42.070;24.752;2023-05-21T11:34:45;98686.81;;;22.61;59.03
10948;BME280;5526;42.070;24.752;2023-05-21T11:37:29;98681.84;;;22.75;58.66
10948;BME280;5526;42.070;24.752;2023-05-21T11:40:24;98676.25;;;22.80;58.38
10948;BME280;5526;42.070;24.752;2023-05-21T11:42:54;98678.03;;;22.88;58.34
10948;BME280;5526;42.070;24.752;2023-05-21T11:45:26;98670.13;;;23.07;57.45
10948;BME280;5526;42.070;24.752;2023-05-21T11:47:55;98672.25;;;23.02;58.10
10948;BME280;5526;42.070;24.752;2023-05-21T11:50:22;98670.72;;;22.89;57.80
10948;BME280;5526;42.070;24.752;2023-05-21T11:52:49;98661.00;;;22.96;58.41
10948;BME280;5526;42.070;24.752;2023-05-21T11:55:20;98667.56;;;22.99;58.63
10948;BME280;5526;42.070;24.752;2023-05-21T11:57:52;98659.94;;;23.01;58.87
10948;BME280;5526;42.070;24.752;2023-05-21T12:02:49;98666.28;;;23.20;58.59
10948;BME280;5526;42.070;24.752;2023-05-21T12:05:17;98659.00;;;23.21;58.13
10948;BME280;5526;42.070;24.752;2023-05-21T12:07:46;98656.75;;;23.23;57.95
10948;BME280;5526;42.070;24.752;2023-05-21T12:10:14;98657.28;;;23.28;58.25
10948;BME280;5526;42.070;24.752;2023-05-21T12:12:42;98651.31;;;23.35;58.49
10948;BME280;5526;42.070;24.752;2023-05-21T12:15:10;98645.59;;;23.36;58.32
10948;BME280;5526;42.070;24.752;2023-05-21T12:17:38;98645.66;;;23.40;58.60
10948;BME280;5526;42.070;24.752;2023-05-21T12:20:08;98648.66;;;23.50;58.09
10948;BME280;5526;42.070;24.752;2023-05-21T12:22:39;98643.44;;;23.57;58.11
10948;BME280;5526;42.070;24.752;2023-05-21T12:25:08;98643.81;;;23.56;57.89
10948;BME280;5526;42.070;24.752;2023-05-21T12:27:36;98641.81;;;23.53;57.42
10948;BME280;5526;42.070;24.752;2023-05-21T12:30:05;98641.44;;;23.39;57.40
10948;BME280;5526;42.070;24.752;2023-05-21T12:32:32;98627.66;;;23.25;57.81
10948;BME280;5526;42.070;24.752;2023-05-21T12:35:00;98635.16;;;23.19;58.00
10948;BME280;5526;42.070;24.752;2023-05-21T12:37:29;98639.41;;;23.20;56.96
10948;BME280;5526;42.070;24.752;2023-05-21T12:39:57;98641.13;;;23.13;57.49
10948;BME280;5526;42.070;24.752;2023-05-21T12:42:26;98647.50;;;23.08;58.21
10948;BME280;5526;42.070;24.752;2023-05-21T12:44:54;98638.31;;;23.09;59.31
10948;BME280;5526;42.070;24.752;2023-05-21T12:47:22;98626.91;;;23.12;59.36
10948;BME280;5526;42.070;24.752;2023-05-21T12:49:53;98626.31;;;23.19;59.69
10948;BME280;5526;42.070;24.752;2023-05-21T12:52:22;98635.53;;;23.33;60.59
10948;BME280;5526;42.070;24.752;2023-05-21T12:54:52;98632.34;;;23.43;60.47
10948;BME280;5526;42.070;24.752;2023-05-21T12:57:20;98622.47;;;23.47;60.35
10948;BME280;5526;42.070;24.752;2023-05-21T12:59:50;98629.56;;;23.55;59.75
10948;BME280;5526;42.070;24.752;2023-05-21T13:02:21;98625.78;;;23.72;58.13
10948;BME280;5526;42.070;24.752;2023-05-21T13:04:53;98626.88;;;23.86;58.26
10948;BME280;5526;42.070;24.752;2023-05-21T13:07:21;98632.84;;;24.11;57.69
10948;BME280;5526;42.070;24.752;2023-05-21T13:09:48;98628.56;;;24.25;57.31